createdAt,value
2018-11-07T00:01:28.930Z,66.12
2018-11-07T00:03:57.373Z,66.03
2018-11-07T00:06:25.807Z,66.18
2018-11-07T00:08:54.244Z,65.99
2018-11-07T00:11:22.663Z,65.96
2018-11-07T00:13:51.094Z,65.38
2018-11-07T00:16:19.507Z,65.39
2018-11-07T00:18:47.951Z,65.13
2018-11-07T00:21:16.366Z,65.92
2018-11-07T00:23:44.806Z,65.95
2018-11-07T00:26:13.241Z,65.67
2018-11-07T00:28:41.751Z,65.67
2018-11-07T00:31:10.155Z,66.11
2018-11-07T00:33:38.607Z,65.55
2018-11-07T00:36:07.042Z,65.71
2018-11-07T00:38:35.507Z,64.97
2018-11-07T00:41:03.940Z,65.25
2018-11-07T00:43:32.351Z,65.14
2018-11-07T00:46:00.787Z,65.40
2018-11-07T00:48:29.206Z,64.89
2018-11-07T00:50:57.667Z,65.31
2018-11-07T00:53:26.087Z,65.05
2018-11-07T00:55:54.530Z,65.04
2018-11-07T00:58:22.963Z,64.53
2018-11-07T01:00:51.423Z,65.08
2018-11-07T01:03:19.838Z,63.66
2018-11-07T01:05:48.289Z,63.62
2018-11-07T01:08:16.710Z,64.91
2018-11-07T01:10:45.176Z,63.93
2018-11-07T01:13:13.617Z,64.24
2018-11-07T01:15:42.054Z,64.85
2018-11-07T01:18:10.478Z,65.33
2018-11-07T01:20:38.944Z,65.60
2018-11-07T01:23:07.371Z,65.29
2018-11-07T01:25:35.811Z,64.77
2018-11-07T01:28:04.275Z,65.36
2018-11-07T01:30:32.731Z,65.69
2018-11-07T01:33:01.134Z,65.12
2018-11-07T01:35:29.574Z,65.79
2018-11-07T01:37:58.031Z,65.31
2018-11-07T01:40:26.469Z,65.69
2018-11-07T01:42:54.933Z,65.96
2018-11-07T01:45:23.338Z,64.76
2018-11-07T01:47:51.770Z,64.20
2018-11-07T01:50:20.184Z,64.46
2018-11-07T01:52:48.638Z,65.21
2018-11-07T01:55:17.083Z,64.56
2018-11-07T01:57:45.540Z,64.23
2018-11-07T02:00:14.047Z,64.50
2018-11-07T02:02:43.811Z,64.95
2018-11-07T02:05:12.662Z,64.88
2018-11-07T02:07:41.563Z,64.75
2018-11-07T02:10:10.546Z,64.63
2018-11-07T02:12:39.379Z,64.82
2018-11-07T02:15:08.323Z,64.70
2018-11-07T02:17:36.951Z,64.42
2018-11-07T02:20:06.742Z,65.19
2018-11-07T02:22:35.214Z,64.51
2018-11-07T02:25:03.763Z,64.98
2018-11-07T02:27:32.211Z,65.44
2018-11-07T02:30:00.632Z,65.14
2018-11-07T02:32:29.054Z,65.40
2018-11-07T02:34:57.506Z,65.34
2018-11-07T02:37:25.924Z,65.42
2018-11-07T02:39:54.364Z,64.93
2018-11-07T02:42:22.793Z,64.74
2018-11-07T02:44:51.229Z,64.75
2018-11-07T02:47:19.647Z,64.87
2018-11-07T02:49:48.098Z,65.43
2018-11-07T02:52:16.510Z,65.40
2018-11-07T02:54:44.956Z,65.26
2018-11-07T02:57:13.378Z,64.95
2018-11-07T02:59:41.872Z,65.27
2018-11-07T03:02:10.316Z,65.46
2018-11-07T03:04:38.803Z,66.11
2018-11-07T03:07:07.304Z,65.36
2018-11-07T03:09:35.761Z,65.87
2018-11-07T03:12:04.176Z,65.44
2018-11-07T03:14:32.634Z,64.86
2018-11-07T03:17:01.059Z,64.39
2018-11-07T03:19:29.507Z,64.79
2018-11-07T03:21:57.940Z,64.34
2018-11-07T03:24:26.383Z,65.06
2018-11-07T03:26:54.835Z,64.34
2018-11-07T03:29:23.238Z,65.43
2018-11-07T03:31:51.691Z,64.79
2018-11-07T03:34:20.110Z,65.10
2018-11-07T03:36:48.558Z,65.53
2018-11-07T03:39:16.963Z,65.64
2018-11-07T03:41:45.418Z,65.37
2018-11-07T03:44:13.825Z,65.44
2018-11-07T03:46:42.263Z,64.49
2018-11-07T03:49:10.686Z,64.42
2018-11-07T03:51:39.160Z,64.87
2018-11-07T03:54:07.589Z,64.56
2018-11-07T03:56:36.034Z,64.71
2018-11-07T03:59:04.518Z,64.73
2018-11-07T04:01:32.962Z,64.17
2018-11-07T04:04:01.365Z,63.73
2018-11-07T04:06:29.803Z,64.07
2018-11-07T04:08:58.225Z,64.03
2018-11-07T04:11:26.656Z,63.15
2018-11-07T04:13:55.094Z,63.38
2018-11-07T04:16:23.506Z,64.22
2018-11-07T04:18:51.954Z,64.25
2018-11-07T04:21:20.366Z,64.21
2018-11-07T04:23:59.723Z,64.17
2018-11-07T04:26:28.143Z,63.90
2018-11-07T04:28:56.625Z,63.00
2018-11-07T04:31:25.080Z,63.51
2018-11-07T04:33:53.524Z,64.39
2018-11-07T04:36:22.015Z,64.00
2018-11-07T04:38:50.502Z,63.27
2018-11-07T04:41:18.923Z,63.16
2018-11-07T04:43:47.371Z,63.50
2018-11-07T04:46:15.771Z,63.19
2018-11-07T04:48:44.517Z,63.63
2018-11-07T04:51:13.263Z,64.10
2018-11-07T04:53:41.732Z,64.50
2018-11-07T04:56:10.158Z,63.67
2018-11-07T04:58:38.626Z,63.97
2018-11-07T05:01:07.598Z,63.76
2018-11-07T05:03:36.729Z,64.57
2018-11-07T05:06:05.159Z,63.70
2018-11-07T05:08:33.715Z,65.02
2018-11-07T05:11:02.114Z,64.06
2018-11-07T05:13:30.592Z,63.46
2018-11-07T05:15:58.995Z,63.46
2018-11-07T05:18:27.443Z,63.85
2018-11-07T05:20:55.907Z,63.57
2018-11-07T05:23:24.326Z,63.83
2018-11-07T05:25:52.771Z,64.31
2018-11-07T05:28:21.187Z,64.79
2018-11-07T05:30:49.624Z,65.42
2018-11-07T05:33:18.044Z,64.85
2018-11-07T05:35:46.553Z,65.59
2018-11-07T05:38:15.105Z,64.55
2018-11-07T05:40:43.664Z,64.75
2018-11-07T05:43:12.148Z,65.20
2018-11-07T05:45:40.642Z,65.60
2018-11-07T05:48:09.053Z,64.96
2018-11-07T05:50:37.526Z,64.92
2018-11-07T05:53:06.494Z,64.54
2018-11-07T05:55:34.958Z,63.88
2018-11-07T05:58:03.378Z,63.98
2018-11-07T06:00:31.850Z,64.65
2018-11-07T06:03:00.258Z,63.79
2018-11-07T06:05:28.787Z,63.59
2018-11-07T06:07:57.202Z,63.45
2018-11-07T06:10:25.657Z,63.20
2018-11-07T06:12:54.118Z,64.55
2018-11-07T06:15:24.600Z,64.11
2018-11-07T06:17:54.260Z,64.39
2018-11-07T06:23:10.049Z,63.01
2018-11-07T06:25:38.801Z,62.88
2018-11-07T06:28:07.547Z,63.40
2018-11-07T06:30:42.624Z,63.12
2018-11-07T06:33:11.461Z,62.87
2018-11-07T06:48:35.702Z,62.49
2018-11-07T06:51:04.885Z,63.13
2018-11-07T06:53:33.687Z,62.45
2018-11-07T06:56:03.081Z,62.77
2018-11-07T06:58:32.283Z,62.56
2018-11-07T07:01:01.992Z,62.16
2018-11-07T07:03:32.472Z,61.90
2018-11-07T07:06:02.332Z,61.74
2018-11-07T07:08:30.976Z,62.37
2018-11-07T07:10:59.850Z,62.92
2018-11-07T07:13:28.745Z,63.36
2018-11-07T07:15:57.651Z,62.92
2018-11-07T07:18:33.126Z,62.55
2018-11-07T07:21:01.763Z,62.06
2018-11-07T07:23:30.334Z,61.93
2018-11-07T07:25:58.954Z,62.08
2018-11-07T07:28:27.558Z,62.29
2018-11-07T07:31:02.823Z,62.57
2018-11-07T07:33:31.486Z,62.84
2018-11-07T07:35:59.971Z,62.40
2018-11-07T07:38:28.441Z,62.35
2018-11-07T07:40:57.068Z,62.56
2018-11-07T07:43:25.561Z,62.45
2018-11-07T07:45:54.221Z,62.00
2018-11-07T07:48:22.815Z,62.62
2018-11-07T07:50:51.479Z,61.16
2018-11-07T07:53:20.233Z,61.26
2018-11-07T07:55:48.781Z,61.09
2018-11-07T07:58:17.349Z,61.53
2018-11-07T08:00:46.066Z,61.87
2018-11-07T08:03:14.665Z,61.57
2018-11-07T08:05:43.311Z,62.09
2018-11-07T08:08:11.885Z,62.71
2018-11-07T08:10:40.448Z,62.75
2018-11-07T08:13:09.040Z,61.92
2018-11-07T08:15:37.664Z,61.75
2018-11-07T08:18:07.108Z,60.90
2018-11-07T08:20:35.773Z,60.34
2018-11-07T08:23:04.352Z,60.57
2018-11-07T08:25:32.942Z,60.49
2018-11-07T08:28:01.513Z,60.06
2018-11-07T08:30:30.084Z,60.07
2018-11-07T08:32:58.659Z,60.20
2018-11-07T08:35:27.218Z,59.75
2018-11-07T08:37:55.879Z,59.39
2018-11-07T08:40:24.769Z,59.57
2018-11-07T08:42:53.443Z,58.35
2018-11-07T08:45:22.072Z,58.74
2018-11-07T08:47:50.771Z,58.19
2018-11-07T08:50:20.769Z,58.14
2018-11-07T08:52:49.918Z,57.54
2018-11-07T08:55:23.422Z,57.35
2018-11-07T08:57:52.067Z,57.37
2018-11-07T09:00:22.347Z,57.03
2018-11-07T09:02:51.196Z,56.36
2018-11-07T09:05:20.626Z,56.06
2018-11-07T09:07:49.561Z,56.02
2018-11-07T09:10:19.570Z,55.60
2018-11-07T09:12:48.139Z,55.05
2018-11-07T09:15:18.004Z,54.75
2018-11-07T09:17:46.627Z,54.70
2018-11-07T09:20:17.048Z,54.42
2018-11-07T09:22:45.687Z,54.96
2018-11-07T09:25:15.144Z,54.82
2018-11-07T09:27:44.370Z,54.82
2018-11-07T09:30:15.688Z,55.46
2018-11-07T09:32:44.251Z,54.66
2018-11-07T09:35:13.407Z,54.53
2018-11-07T09:37:42.340Z,53.62
2018-11-07T09:40:13.469Z,53.40
2018-11-07T09:42:42.591Z,52.99
2018-11-07T09:45:13.244Z,52.92
2018-11-07T09:47:42.485Z,53.37
2018-11-07T09:50:12.141Z,52.58
2018-11-07T09:52:41.129Z,52.65
2018-11-07T09:55:12.765Z,52.47
2018-11-07T09:57:47.803Z,52.38
2018-11-07T10:00:18.034Z,52.88
2018-11-07T10:02:46.802Z,53.19
2018-11-07T10:05:16.811Z,52.44
2018-11-07T10:07:45.421Z,52.97
2018-11-07T10:10:15.703Z,52.50
2018-11-07T10:12:44.917Z,53.50
2018-11-07T10:15:13.943Z,53.07
2018-11-07T10:17:42.609Z,53.10
2018-11-07T10:20:21.432Z,53.72
2018-11-07T10:22:50.429Z,53.04
2018-11-07T10:25:29.317Z,52.95
2018-11-07T10:27:58.422Z,51.63
2018-11-07T10:30:26.561Z,51.68
2018-11-07T10:32:55.099Z,51.74
2018-11-07T10:35:23.696Z,51.79
2018-11-07T10:37:52.438Z,51.63
2018-11-07T10:40:23.578Z,51.53
2018-11-07T10:42:52.135Z,51.43
2018-11-07T10:45:20.842Z,51.97
2018-11-07T10:47:50.090Z,52.78
2018-11-07T10:50:19.874Z,52.46
2018-11-07T10:52:48.954Z,53.18
2018-11-07T10:55:18.108Z,52.73
2018-11-07T10:57:46.695Z,51.77
2018-11-07T11:00:21.580Z,51.76
2018-11-07T11:02:55.472Z,52.18
2018-11-07T11:05:24.159Z,52.28
2018-11-07T11:07:52.831Z,52.19
2018-11-07T11:10:21.496Z,52.16
2018-11-07T11:12:50.077Z,52.35
2018-11-07T11:15:18.701Z,52.89
2018-11-07T11:17:47.520Z,51.93
2018-11-07T11:47:34.930Z,51.53
2018-11-07T11:50:04.001Z,51.45
2018-11-07T11:52:32.553Z,51.48
2018-11-07T12:09:20.377Z,51.63
2018-11-07T12:11:48.974Z,51.19
2018-11-07T12:14:17.992Z,50.92
2018-11-07T12:16:46.610Z,51.04
2018-11-07T12:19:15.596Z,51.12
2018-11-07T14:19:48.377Z,38.67
2018-11-07T14:22:16.852Z,35.92
2018-11-07T14:24:45.362Z,33.61
2018-11-07T14:27:13.784Z,31.61
2018-11-07T14:29:42.311Z,30.74
2018-11-07T14:32:10.802Z,29.27
2018-11-07T14:34:39.351Z,29.23
2018-11-07T14:37:07.800Z,28.79
2018-11-07T14:39:36.339Z,27.88
2018-11-07T14:42:05.211Z,27.40
2018-11-07T14:44:33.688Z,28.13
2018-11-07T14:47:02.172Z,28.30
2018-11-07T14:49:30.788Z,28.43
2018-11-07T14:51:59.244Z,28.97
2018-11-07T14:54:27.769Z,32.27
2018-11-07T14:56:56.350Z,35.05
2018-11-07T14:59:25.015Z,39.32
2018-11-07T15:01:53.539Z,41.14
2018-11-07T15:04:22.018Z,45.08
2018-11-07T15:06:50.512Z,47.46
2018-11-07T15:09:19.016Z,48.78
2018-11-07T15:11:47.628Z,51.26
2018-11-07T15:14:16.176Z,52.54
2018-11-07T15:16:44.889Z,53.42
2018-11-07T15:19:13.586Z,54.12
2018-11-07T15:21:42.249Z,55.58
2018-11-07T15:24:10.833Z,55.75
2018-11-07T15:26:39.525Z,56.39
2018-11-07T15:29:14.538Z,57.34
2018-11-07T15:31:43.226Z,58.28
2018-11-07T15:34:11.856Z,58.35
2018-11-07T15:36:40.500Z,58.78
2018-11-07T15:39:10.471Z,58.67
2018-11-07T15:41:39.155Z,59.46
2018-11-07T15:44:08.076Z,60.06
2018-11-07T15:46:36.749Z,59.76
2018-11-07T15:49:05.576Z,60.12
2018-11-07T15:51:37.458Z,60.02
2018-11-07T15:54:06.517Z,60.17
2018-11-07T15:56:35.507Z,60.50
2018-11-07T15:59:04.500Z,60.83
2018-11-07T16:01:33.142Z,61.19
2018-11-07T16:04:02.594Z,61.37
2018-11-07T16:06:31.130Z,61.59
2018-11-07T16:09:00.074Z,62.14
2018-11-07T16:11:29.605Z,62.11
2018-11-07T16:14:02.595Z,62.09
2018-11-07T16:37:22.103Z,63.55
2018-11-07T16:39:51.058Z,63.77
2018-11-07T16:42:20.602Z,63.72
2018-11-07T16:46:32.307Z,64.18
2018-11-07T16:49:01.168Z,63.37
2018-11-07T16:51:29.937Z,64.33
2018-11-07T16:53:58.464Z,63.10
2018-11-07T16:56:27.011Z,64.26
2018-11-07T16:58:55.558Z,64.58
2018-11-07T17:01:24.265Z,63.93
2018-11-07T17:03:52.952Z,63.96
2018-11-07T17:06:21.491Z,64.35
2018-11-07T17:08:50.005Z,64.82
2018-11-07T17:11:18.511Z,64.48
2018-11-07T17:13:47.035Z,64.87
2018-11-07T17:16:15.537Z,65.06
2018-11-07T17:18:44.099Z,64.61
2018-11-07T17:21:12.777Z,64.55
2018-11-07T17:23:41.358Z,64.43
2018-11-07T17:26:09.889Z,64.63
2018-11-07T17:28:38.443Z,64.89
2018-11-07T17:31:06.957Z,65.10
2018-11-07T17:33:35.548Z,64.28
2018-11-07T17:36:10.598Z,64.92
2018-11-07T17:38:39.217Z,65.08
2018-11-07T17:41:07.719Z,65.12
2018-11-07T17:43:36.260Z,64.81
2018-11-07T17:46:04.753Z,66.00
2018-11-07T17:48:33.508Z,67.08
2018-11-07T17:51:01.899Z,66.76
2018-11-07T17:53:30.398Z,67.01
2018-11-07T17:55:58.923Z,66.99
2018-11-07T17:58:27.373Z,68.51
2018-11-07T18:00:55.924Z,68.56
2018-11-07T18:03:24.420Z,67.79
2018-11-07T18:05:52.956Z,68.76
2018-11-07T18:08:21.483Z,69.01
2018-11-07T18:10:50.050Z,68.64
2018-11-07T18:13:18.596Z,68.54
2018-11-07T18:15:47.184Z,68.52
2018-11-07T18:18:15.684Z,67.71
2018-11-07T18:20:44.342Z,68.03
2018-11-07T18:23:13.309Z,67.98
2018-11-07T18:25:41.968Z,67.05
2018-11-07T18:28:10.555Z,67.72
2018-11-07T18:30:39.059Z,67.09
2018-11-07T18:33:07.645Z,66.95
2018-11-07T18:35:36.322Z,67.89
2018-11-07T18:38:04.803Z,67.53
2018-11-07T18:40:33.276Z,67.37
2018-11-07T18:43:01.808Z,66.16
2018-11-07T18:45:30.423Z,67.01
2018-11-07T18:47:58.917Z,67.50
2018-11-07T18:50:27.404Z,67.25
2018-11-07T18:52:55.931Z,68.50
2018-11-07T18:55:24.415Z,69.03
2018-11-07T18:57:53.213Z,68.61
2018-11-07T19:00:21.683Z,69.23
2018-11-07T19:02:51.141Z,68.51
2018-11-07T19:05:19.814Z,68.59
2018-11-07T19:07:48.359Z,68.51
2018-11-07T19:10:18.346Z,69.09
2018-11-07T19:12:49.059Z,68.55
2018-11-07T19:15:19.645Z,69.16
2018-11-07T19:17:54.221Z,68.89
2018-11-07T19:20:26.056Z,69.04
2018-11-07T19:22:56.157Z,69.63
2018-11-07T19:25:25.792Z,69.73
2018-11-07T19:27:55.404Z,70.33
2018-11-07T19:30:25.670Z,70.89
2018-11-07T19:32:55.015Z,69.74
2018-11-07T19:35:23.829Z,69.47
2018-11-07T19:37:53.578Z,68.98
2018-11-07T19:40:23.704Z,69.58
2018-11-07T19:42:54.020Z,69.84
2018-11-07T19:45:23.407Z,70.07
2018-11-07T19:47:52.446Z,69.66
2018-11-07T19:50:22.191Z,70.56
2018-11-07T19:52:51.987Z,70.48
2018-11-07T19:55:22.383Z,69.88
2018-11-07T19:57:54.796Z,70.39
2018-11-07T20:00:23.349Z,70.31
2018-11-07T20:02:51.914Z,70.92
2018-11-07T20:05:20.568Z,70.45
2018-11-07T20:07:49.219Z,70.46
2018-11-07T20:10:20.293Z,71.12
2018-11-07T20:12:48.832Z,70.23
2018-11-07T20:15:18.754Z,70.19
2018-11-07T20:17:47.411Z,70.32
2018-11-07T20:20:16.521Z,70.08
2018-11-07T20:22:45.116Z,70.01
2018-11-07T20:25:14.640Z,70.34
2018-11-07T20:27:43.569Z,70.77
2018-11-07T20:30:13.895Z,70.41
2018-11-07T20:32:43.102Z,71.36
2018-11-07T20:35:13.980Z,71.09
2018-11-07T20:37:42.980Z,70.86
2018-11-07T20:40:14.443Z,70.97
2018-11-07T20:42:43.319Z,71.81
2018-11-07T20:45:13.229Z,71.66
2018-11-07T20:47:41.939Z,70.71
2018-11-07T20:50:13.770Z,71.13
2018-11-07T20:52:49.971Z,70.92
2018-11-07T20:55:19.765Z,70.94
2018-11-07T20:57:48.978Z,71.50
2018-11-07T21:00:20.600Z,71.35
2018-11-07T21:02:51.698Z,71.72
2018-11-07T21:20:46.131Z,71.53
2018-11-07T21:23:14.872Z,71.14
2018-11-07T21:25:46.042Z,70.90
2018-11-07T21:28:15.397Z,71.00
2018-11-07T21:30:44.696Z,71.04
2018-11-07T21:33:13.962Z,71.18
2018-11-07T21:35:43.058Z,71.86
2018-11-07T21:38:13.252Z,71.78
2018-11-07T21:40:42.151Z,71.80
2018-11-07T21:43:11.193Z,70.60
2018-11-07T21:45:39.961Z,71.11
2018-11-07T21:48:08.890Z,70.94
2018-11-07T21:50:37.655Z,70.04
2018-11-07T21:53:06.416Z,70.34
2018-11-07T21:55:35.245Z,70.24
2018-11-07T21:58:03.985Z,70.25
2018-11-07T22:00:33.681Z,70.90
2018-11-07T22:03:02.530Z,70.79
2018-11-07T22:05:31.595Z,70.61
2018-11-07T22:08:00.902Z,70.39
2018-11-07T22:10:30.175Z,70.41
2018-11-07T22:12:59.119Z,70.39
2018-11-07T22:15:27.999Z,70.79
2018-11-07T22:17:58.060Z,70.33
2018-11-07T22:20:26.733Z,69.82
2018-11-07T22:22:59.390Z,69.71
2018-11-07T22:25:28.848Z,70.31
2018-11-07T22:27:57.963Z,70.17
2018-11-07T22:35:35.351Z,70.10
2018-11-07T22:38:03.940Z,69.89
2018-11-07T22:40:33.458Z,69.80
2018-11-07T22:43:09.627Z,69.80
2018-11-07T22:45:38.217Z,69.65
2018-11-07T22:48:06.838Z,70.49
2018-11-07T22:50:35.453Z,69.90
2018-11-07T22:53:04.064Z,69.81
2018-11-07T22:55:32.751Z,70.53
2018-11-07T22:58:01.468Z,70.18
2018-11-07T23:00:35.484Z,70.47
2018-11-07T23:03:04.117Z,70.32
2018-11-07T23:05:32.883Z,69.90
2018-11-07T23:08:01.458Z,70.88
2018-11-07T23:10:36.666Z,71.17
2018-11-07T23:13:05.331Z,70.29
2018-11-07T23:15:39.252Z,70.33
2018-11-07T23:18:07.685Z,71.30
2018-11-07T23:20:36.155Z,70.32
2018-11-07T23:23:04.571Z,70.41
2018-11-07T23:25:32.968Z,70.29
2018-11-07T23:28:01.411Z,69.65
2018-11-07T23:30:29.834Z,69.86
2018-11-07T23:32:58.263Z,70.46
2018-11-07T23:35:26.699Z,69.73
2018-11-07T23:37:55.161Z,70.38
2018-11-07T23:40:23.596Z,69.91
2018-11-07T23:42:52.090Z,70.33
2018-11-07T23:45:20.522Z,70.11
2018-11-07T23:47:48.978Z,69.22
2018-11-07T23:50:17.408Z,69.37
2018-11-07T23:52:51.154Z,69.86
2018-11-07T23:55:20.926Z,69.35
2018-11-07T23:57:50.045Z,70.02
